createdAt,value
2023-10-10T00:01:40.765Z,4.60
2023-10-10T00:04:12.016Z,4.93
2023-10-10T00:06:40.729Z,3.47
2023-10-10T00:09:12.774Z,5.70
2023-10-10T00:11:46.957Z,4.47
2023-10-10T00:14:19.500Z,5.70
2023-10-10T00:16:49.283Z,7.03
2023-10-10T00:19:22.813Z,5.77
2023-10-10T00:21:51.699Z,6.20
2023-10-10T00:24:25.030Z,4.10
2023-10-10T00:26:53.720Z,8.43
2023-10-10T00:29:27.436Z,6.93
2023-10-10T00:32:06.845Z,7.47
2023-10-10T00:34:39.093Z,7.73
2023-10-10T00:37:12.230Z,7.50
2023-10-10T00:39:41.968Z,6.73
2023-10-10T00:42:20.995Z,10.53
2023-10-10T00:44:49.394Z,5.93
2023-10-10T00:47:27.780Z,5.87
2023-10-10T00:49:56.601Z,5.40
2023-10-10T00:52:25.077Z,7.70
2023-10-10T00:54:54.809Z,6.67
2023-10-10T00:57:28.829Z,4.60
2023-10-10T00:59:58.097Z,6.10
2023-10-10T01:02:27.697Z,6.57
2023-10-10T01:05:05.675Z,5.37
2023-10-10T01:07:35.655Z,7.37
2023-10-10T01:10:12.625Z,8.50
2023-10-10T01:12:41.572Z,7.40
2023-10-10T01:15:15.453Z,6.17
2023-10-10T01:17:44.758Z,5.17
2023-10-10T01:20:20.290Z,5.63
2023-10-10T01:22:50.202Z,6.20
2023-10-10T01:25:32.528Z,7.83
2023-10-10T01:28:03.349Z,4.10
2023-10-10T01:30:58.166Z,4.43
2023-10-10T01:33:36.941Z,5.97
2023-10-10T01:36:12.649Z,8.40
2023-10-10T01:38:57.362Z,5.77
2023-10-10T01:41:33.019Z,3.93
2023-10-10T01:44:11.865Z,4.63
2023-10-10T01:46:41.721Z,4.43
2023-10-10T01:49:21.046Z,5.43
2023-10-10T01:51:52.147Z,4.20
2023-10-10T01:54:23.136Z,4.37
2023-10-10T01:56:53.355Z,5.03
2023-10-10T01:59:25.717Z,4.63
2023-10-10T02:01:58.940Z,5.87
2023-10-10T02:04:29.569Z,4.43
2023-10-10T02:07:05.530Z,4.90
2023-10-10T02:09:36.343Z,4.17
2023-10-10T02:12:13.594Z,5.27
2023-10-10T02:14:44.305Z,6.50
2023-10-10T02:17:24.430Z,6.73
2023-10-10T02:19:59.859Z,5.33
2023-10-10T02:22:48.900Z,4.90
2023-10-10T02:25:38.934Z,7.07
2023-10-10T02:28:20.960Z,4.83
2023-10-10T02:30:52.292Z,3.83
2023-10-10T02:33:32.354Z,7.13
2023-10-10T02:36:00.970Z,4.30
2023-10-10T02:38:38.159Z,2.57
2023-10-10T02:41:24.588Z,4.73
2023-10-10T02:44:06.578Z,6.13
2023-10-10T02:46:39.175Z,5.57
2023-10-10T02:49:23.639Z,3.43
2023-10-10T02:51:56.764Z,5.10
2023-10-10T02:54:33.704Z,3.60
2023-10-10T02:57:28.179Z,3.97
2023-10-10T03:00:00.728Z,4.27
2023-10-10T03:02:31.909Z,5.57
2023-10-10T03:05:17.731Z,5.33
2023-10-10T03:07:53.134Z,7.23
2023-10-10T03:10:36.800Z,5.97
2023-10-10T03:13:14.593Z,6.20
2023-10-10T03:15:53.023Z,5.40
2023-10-10T03:18:29.222Z,8.43
2023-10-10T03:21:19.310Z,6.03
2023-10-10T03:23:56.934Z,7.77
2023-10-10T03:26:51.218Z,7.03
2023-10-10T03:29:38.418Z,6.20
2023-10-10T03:32:27.914Z,6.73
2023-10-10T03:35:06.809Z,6.73
2023-10-10T03:37:42.136Z,14.70
2023-10-10T03:40:28.494Z,6.13
2023-10-10T03:43:14.716Z,5.73
2023-10-10T03:46:02.464Z,5.80
2023-10-10T03:48:49.082Z,7.83
2023-10-10T03:51:35.322Z,6.30
2023-10-10T03:54:21.294Z,7.20
2023-10-10T03:57:07.309Z,5.73
2023-10-10T03:59:53.495Z,4.93
2023-10-10T04:02:41.101Z,6.77
2023-10-10T04:05:28.319Z,5.70
2023-10-10T04:08:14.574Z,5.40
2023-10-10T04:11:05.449Z,4.90
2023-10-10T04:13:51.297Z,6.37
2023-10-10T04:16:37.171Z,10.87
2023-10-10T04:19:24.633Z,7.97
2023-10-10T04:22:10.608Z,5.73
2023-10-10T04:24:57.721Z,7.53
2023-10-10T04:27:45.410Z,5.63
2023-10-10T04:30:31.435Z,4.80
2023-10-10T04:33:17.496Z,5.60
2023-10-10T04:36:04.675Z,6.60
2023-10-10T04:38:50.708Z,11.13
2023-10-10T04:41:36.746Z,4.53
2023-10-10T04:44:23.023Z,6.23
2023-10-10T04:47:08.994Z,5.43
2023-10-10T04:49:54.948Z,3.83
2023-10-10T04:52:42.296Z,3.73
2023-10-10T04:55:28.169Z,5.77
2023-10-10T04:58:14.352Z,5.50
2023-10-10T05:01:00.317Z,5.43
2023-10-10T05:03:46.505Z,5.37
2023-10-10T05:06:34.261Z,5.03
2023-10-10T05:09:34.604Z,7.30
2023-10-10T05:12:20.427Z,4.43
2023-10-10T05:15:12.046Z,9.83
2023-10-10T05:17:58.282Z,5.03
2023-10-10T05:20:44.121Z,6.07
2023-10-10T05:23:30.210Z,7.43
2023-10-10T05:26:00.833Z,8.40
2023-10-10T05:28:31.661Z,6.30
2023-10-10T05:30:59.987Z,7.43
2023-10-10T05:33:28.419Z,6.73
2023-10-10T05:36:00.129Z,10.17
2023-10-10T05:38:28.636Z,6.23
2023-10-10T05:41:01.301Z,5.07
2023-10-10T05:43:35.204Z,4.73
2023-10-10T05:46:05.179Z,8.63
2023-10-10T05:48:33.708Z,6.10
2023-10-10T05:51:02.187Z,6.17
2023-10-10T05:53:34.168Z,7.97
2023-10-10T05:56:14.359Z,7.70
2023-10-10T05:58:48.654Z,4.87
2023-10-10T06:01:18.622Z,7.43
2023-10-10T06:03:47.706Z,7.90
2023-10-10T06:06:19.434Z,7.60
2023-10-10T06:08:48.016Z,7.00
2023-10-10T06:11:16.811Z,7.43
2023-10-10T06:13:46.798Z,10.20
2023-10-10T06:16:16.297Z,7.53
2023-10-10T06:18:46.306Z,5.37
2023-10-10T06:21:16.043Z,11.23
2023-10-10T06:23:45.980Z,6.43
2023-10-10T06:26:15.336Z,7.93
2023-10-10T06:28:52.313Z,6.50
2023-10-10T06:31:22.808Z,7.43
2023-10-10T06:33:52.505Z,8.67
2023-10-10T06:36:34.350Z,11.10
2023-10-10T06:39:16.553Z,7.80
2023-10-10T06:41:48.530Z,8.37
2023-10-10T06:44:19.177Z,9.27
2023-10-10T06:46:49.968Z,8.70
2023-10-10T06:49:22.359Z,8.47
2023-10-10T06:51:51.295Z,8.60
2023-10-10T06:54:28.832Z,13.57
2023-10-10T06:57:06.252Z,10.80
2023-10-10T06:59:36.682Z,11.63
2023-10-10T07:02:15.177Z,11.73
2023-10-10T07:04:43.766Z,11.60
2023-10-10T07:07:14.728Z,10.43
2023-10-10T07:09:43.655Z,11.40
2023-10-10T07:12:12.425Z,8.60
2023-10-10T07:14:44.805Z,8.13
2023-10-10T07:17:14.996Z,8.67
2023-10-10T07:20:17.305Z,11.37
2023-10-10T07:22:46.292Z,10.93
2023-10-10T07:25:32.904Z,11.50
2023-10-10T07:28:02.778Z,9.53
2023-10-10T07:30:36.620Z,10.77
2023-10-10T07:33:14.063Z,10.77
2023-10-10T07:35:45.926Z,10.53
2023-10-10T07:38:16.946Z,11.63
2023-10-10T07:40:45.340Z,10.57
2023-10-10T07:43:13.925Z,10.67
2023-10-10T07:45:45.665Z,8.47
2023-10-10T07:48:32.970Z,8.20
2023-10-10T07:51:08.202Z,11.70
2023-10-10T07:53:43.682Z,12.17
2023-10-10T07:56:12.099Z,11.37
2023-10-10T07:58:53.729Z,11.67
2023-10-10T08:01:22.734Z,8.73
2023-10-10T08:03:52.560Z,12.10
2023-10-10T08:06:23.249Z,10.00
2023-10-10T08:09:10.330Z,9.33
2023-10-10T08:11:39.183Z,11.33
2023-10-10T08:14:09.537Z,10.10
2023-10-10T08:16:38.643Z,8.40
2023-10-10T08:19:09.283Z,13.63
2023-10-10T08:21:39.290Z,10.97
2023-10-10T08:24:09.180Z,9.97
2023-10-10T08:26:43.502Z,9.90
2023-10-10T08:29:11.980Z,11.20
2023-10-10T08:31:40.826Z,11.33
2023-10-10T08:34:10.912Z,6.90
2023-10-10T08:36:39.428Z,9.33
2023-10-10T08:39:25.990Z,10.33
2023-10-10T08:41:55.000Z,12.90
2023-10-10T08:44:23.600Z,9.07
2023-10-10T08:46:53.545Z,7.30
2023-10-10T08:49:23.393Z,7.93
2023-10-10T08:51:54.088Z,12.63
2023-10-10T08:54:22.692Z,7.27
2023-10-10T08:57:02.175Z,12.33
2023-10-10T08:59:31.127Z,8.07
2023-10-10T09:02:01.617Z,9.10
2023-10-10T09:04:31.947Z,8.67
2023-10-10T09:07:01.646Z,8.33
2023-10-10T09:09:36.836Z,9.10
2023-10-10T09:12:05.619Z,8.57
2023-10-10T09:14:41.667Z,7.50
2023-10-10T09:17:10.796Z,88.27
2023-10-10T09:19:48.795Z,140.83
2023-10-10T09:22:29.698Z,109.97
2023-10-10T09:25:00.554Z,85.70
2023-10-10T09:27:29.963Z,65.70
2023-10-10T09:29:59.164Z,58.30
2023-10-10T09:32:43.857Z,46.43
2023-10-10T09:35:14.522Z,42.10
2023-10-10T09:37:45.406Z,37.83
2023-10-10T09:40:23.531Z,37.20
2023-10-10T09:43:12.972Z,37.90
2023-10-10T09:45:57.141Z,30.97
2023-10-10T09:48:54.986Z,31.83
2023-10-10T09:51:47.527Z,28.27
2023-10-10T09:54:18.776Z,26.07
2023-10-10T09:56:48.948Z,33.43
2023-10-10T09:59:19.549Z,22.43
2023-10-10T10:01:48.395Z,25.17
2023-10-10T10:04:19.477Z,19.50
2023-10-10T10:07:07.219Z,16.70
2023-10-10T10:09:46.833Z,21.27
2023-10-10T10:12:32.530Z,15.10
2023-10-10T10:15:08.047Z,14.10
2023-10-10T10:17:48.521Z,20.80
2023-10-10T10:20:25.195Z,17.87
2023-10-10T10:22:55.449Z,17.77
2023-10-10T10:25:29.759Z,17.07
2023-10-10T10:28:02.145Z,15.33
2023-10-10T10:30:47.859Z,14.70
2023-10-10T10:33:16.803Z,15.67
2023-10-10T10:36:15.594Z,14.67
2023-10-10T10:38:59.921Z,15.67
2023-10-10T10:41:43.086Z,10.93
2023-10-10T10:44:14.302Z,12.37
2023-10-10T10:46:49.104Z,15.27
2023-10-10T10:49:23.427Z,15.67
2023-10-10T10:52:11.992Z,16.03
2023-10-10T10:54:42.522Z,13.67
2023-10-10T10:57:43.107Z,11.43
2023-10-10T11:00:41.996Z,10.67
2023-10-10T11:03:12.885Z,13.63
2023-10-10T11:05:41.544Z,14.23
2023-10-10T11:08:15.159Z,12.23
2023-10-10T11:10:47.516Z,12.90
2023-10-10T11:13:16.296Z,15.50
2023-10-10T11:15:45.098Z,13.27
2023-10-10T11:18:13.706Z,11.60
2023-10-10T11:20:58.274Z,16.10
2023-10-10T11:23:43.120Z,13.30
2023-10-10T11:26:15.504Z,13.23
2023-10-10T11:28:48.918Z,11.57
2023-10-10T11:31:24.572Z,12.47
2023-10-10T11:34:11.365Z,12.20
2023-10-10T11:36:42.643Z,10.97
2023-10-10T11:39:32.967Z,11.80
2023-10-10T11:42:05.081Z,13.23
2023-10-10T11:44:34.937Z,12.17
2023-10-10T11:47:08.615Z,10.50
2023-10-10T11:49:37.560Z,13.17
2023-10-10T11:52:06.215Z,15.80
2023-10-10T11:54:35.002Z,10.93
2023-10-10T11:57:04.805Z,11.57
2023-10-10T11:59:34.809Z,12.87
2023-10-10T12:02:15.141Z,14.63
2023-10-10T12:04:46.122Z,13.00
2023-10-10T12:07:16.005Z,14.00
2023-10-10T12:09:46.477Z,12.60
2023-10-10T12:12:16.933Z,10.83
2023-10-10T12:14:45.515Z,12.07
2023-10-10T12:17:15.734Z,12.17
2023-10-10T12:19:46.802Z,10.60
2023-10-10T12:22:18.318Z,12.47
2023-10-10T12:24:46.988Z,8.60
2023-10-10T12:27:16.698Z,7.73
2023-10-10T12:29:49.180Z,11.20
2023-10-10T12:32:20.087Z,7.67
2023-10-10T12:34:49.120Z,9.67
2023-10-10T12:37:18.126Z,9.07
2023-10-10T12:39:46.662Z,9.23
2023-10-10T12:42:15.283Z,10.83
2023-10-10T12:44:49.499Z,8.50
2023-10-10T12:47:20.484Z,7.03
2023-10-10T12:49:48.894Z,10.20
2023-10-10T12:52:18.699Z,8.07
2023-10-10T12:54:58.383Z,6.57
2023-10-10T12:57:33.542Z,9.43
2023-10-10T13:00:17.649Z,7.07
2023-10-10T13:02:46.493Z,6.47
2023-10-10T13:05:15.014Z,6.83
2023-10-10T13:07:44.740Z,5.40
2023-10-10T13:10:14.489Z,8.70
2023-10-10T13:12:46.601Z,9.07
2023-10-10T13:15:28.708Z,6.47
2023-10-10T13:18:13.085Z,6.43
2023-10-10T13:20:42.737Z,5.60
2023-10-10T13:23:11.313Z,5.67
2023-10-10T13:25:40.709Z,6.33
2023-10-10T13:28:11.037Z,6.90
2023-10-10T13:30:41.098Z,10.07
2023-10-10T13:33:09.574Z,8.07
2023-10-10T13:35:38.772Z,7.60
2023-10-10T13:38:08.086Z,9.00
2023-10-10T13:40:38.984Z,5.40
2023-10-10T13:43:09.806Z,7.27
2023-10-10T13:45:39.324Z,12.20
2023-10-10T13:48:14.453Z,10.57
2023-10-10T13:50:46.634Z,7.07
2023-10-10T13:53:15.355Z,9.37
2023-10-10T13:55:44.051Z,9.30
2023-10-10T13:58:13.894Z,13.47
2023-10-10T14:00:44.395Z,9.07
2023-10-10T14:03:16.066Z,9.50
2023-10-10T14:06:01.761Z,10.33
2023-10-10T14:08:31.786Z,7.20
2023-10-10T14:11:01.563Z,8.53
2023-10-10T14:13:30.096Z,8.53
2023-10-10T14:16:00.737Z,12.63
2023-10-10T14:18:31.113Z,8.23
2023-10-10T14:21:02.467Z,8.73
2023-10-10T14:23:36.647Z,6.93
2023-10-10T14:26:15.011Z,7.67
2023-10-10T14:28:43.602Z,13.87
2023-10-10T14:31:13.737Z,7.73
2023-10-10T14:33:43.889Z,9.30
2023-10-10T14:36:15.249Z,10.40
2023-10-10T14:38:46.295Z,9.37
2023-10-10T14:41:18.058Z,8.57
2023-10-10T14:43:49.112Z,8.40
2023-10-10T14:46:25.015Z,8.33
2023-10-10T14:49:02.145Z,7.73
2023-10-10T14:51:35.108Z,8.70
2023-10-10T14:54:08.129Z,10.03
2023-10-10T14:56:37.420Z,9.63
2023-10-10T14:59:07.278Z,6.97
2023-10-10T15:01:37.338Z,6.20
2023-10-10T15:04:07.466Z,7.43
2023-10-10T15:06:36.032Z,8.10
2023-10-10T15:09:04.384Z,6.83
2023-10-10T15:11:34.239Z,8.20
2023-10-10T15:14:07.621Z,11.20
2023-10-10T15:16:37.013Z,16.03
2023-10-10T15:19:08.330Z,7.73
2023-10-10T15:21:36.754Z,7.97
2023-10-10T15:24:06.137Z,8.10
2023-10-10T15:26:35.911Z,10.33
2023-10-10T15:29:04.982Z,8.17
2023-10-10T15:31:33.393Z,8.57
2023-10-10T15:34:01.951Z,9.13
2023-10-10T15:36:32.305Z,7.47
2023-10-10T15:39:05.103Z,8.50
2023-10-10T15:41:33.729Z,6.73
2023-10-10T15:44:03.766Z,8.47
2023-10-10T15:46:33.176Z,7.43
2023-10-10T15:49:01.612Z,9.10
2023-10-10T15:51:30.839Z,6.50
2023-10-10T15:54:03.976Z,6.43
2023-10-10T15:56:33.118Z,5.43
2023-10-10T15:59:02.240Z,6.40
2023-10-10T16:01:31.682Z,5.50
2023-10-10T16:04:02.143Z,9.67
2023-10-10T16:06:34.929Z,88.67
2023-10-10T16:09:11.398Z,128.13
2023-10-10T16:11:41.493Z,117.63
2023-10-10T16:14:12.641Z,92.90
2023-10-10T16:16:45.276Z,78.83
2023-10-10T16:19:14.769Z,69.03
2023-10-10T16:21:43.341Z,76.50
2023-10-10T16:24:15.781Z,63.80
2023-10-10T16:26:44.187Z,61.30
2023-10-10T16:29:12.967Z,67.03
2023-10-10T16:31:44.854Z,61.43
2023-10-10T16:34:13.732Z,57.77
2023-10-10T16:36:42.090Z,59.63
2023-10-10T16:39:12.383Z,55.23
2023-10-10T16:41:42.263Z,57.27
2023-10-10T16:44:15.616Z,47.53
2023-10-10T16:46:44.352Z,49.30
2023-10-10T16:49:12.809Z,48.90
2023-10-10T16:51:41.233Z,51.87
2023-10-10T16:54:12.667Z,63.90
2023-10-10T16:56:44.561Z,47.33
2023-10-10T16:59:13.520Z,56.60
2023-10-10T17:01:43.149Z,57.63
2023-10-10T17:04:11.826Z,48.13
2023-10-10T17:06:40.323Z,54.13
2023-10-10T17:09:11.448Z,58.97
2023-10-10T17:11:39.924Z,45.07
2023-10-10T17:14:09.740Z,46.73
2023-10-10T17:16:40.778Z,43.63
2023-10-10T17:19:16.990Z,41.47
2023-10-10T17:21:48.444Z,44.93
2023-10-10T17:24:19.920Z,41.07
2023-10-10T17:26:48.564Z,40.23
2023-10-10T17:29:18.743Z,35.47
2023-10-10T17:31:47.323Z,41.07
2023-10-10T17:34:17.189Z,32.13
2023-10-10T17:36:45.856Z,37.23
2023-10-10T17:39:17.417Z,37.10
2023-10-10T17:41:49.226Z,35.10
2023-10-10T17:44:20.237Z,33.50
2023-10-10T17:46:49.156Z,33.03
2023-10-10T17:49:17.767Z,44.53
2023-10-10T17:51:46.587Z,31.70
2023-10-10T17:54:17.164Z,29.77
2023-10-10T17:56:46.901Z,34.60
2023-10-10T17:59:18.117Z,22.30
2023-10-10T18:01:48.150Z,33.93
2023-10-10T18:04:16.899Z,28.87
2023-10-10T18:06:45.737Z,36.43
2023-10-10T18:09:18.440Z,25.67
2023-10-10T18:11:49.934Z,22.03
2023-10-10T18:14:19.661Z,20.00
2023-10-10T18:16:50.603Z,22.60
2023-10-10T18:19:19.658Z,20.03
2023-10-10T18:21:48.277Z,23.13
2023-10-10T18:24:17.054Z,27.13
2023-10-10T18:26:45.438Z,18.80
2023-10-10T18:29:13.894Z,27.77
2023-10-10T18:31:44.529Z,17.73
2023-10-10T18:34:14.807Z,18.70
2023-10-10T18:36:43.271Z,14.53
2023-10-10T18:39:14.917Z,12.37
2023-10-10T18:41:43.913Z,12.97
2023-10-10T18:44:16.831Z,17.60
2023-10-10T18:46:45.781Z,14.27
2023-10-10T18:49:16.326Z,10.30
2023-10-10T18:51:44.892Z,12.17
2023-10-10T18:54:13.948Z,16.43
2023-10-10T18:56:42.476Z,13.47
2023-10-10T18:59:12.588Z,15.53
2023-10-10T19:01:45.265Z,15.10
2023-10-10T19:04:15.341Z,11.37
2023-10-10T19:06:45.168Z,10.17
2023-10-10T19:09:13.516Z,10.73
2023-10-10T19:11:42.075Z,9.67
2023-10-10T19:14:11.705Z,11.07
2023-10-10T19:16:40.110Z,11.50
2023-10-10T19:19:08.570Z,9.50
2023-10-10T19:21:37.400Z,9.27
2023-10-10T19:24:08.421Z,15.70
2023-10-10T19:26:37.399Z,10.47
2023-10-10T19:29:08.289Z,7.10
2023-10-10T19:31:41.355Z,9.23
2023-10-10T19:34:11.939Z,8.17
2023-10-10T19:36:40.537Z,9.00
2023-10-10T19:39:11.140Z,11.87
2023-10-10T19:41:41.172Z,8.27
2023-10-10T19:44:10.170Z,8.83
2023-10-10T19:46:41.016Z,10.27
2023-10-10T19:49:09.655Z,6.43
2023-10-10T19:51:42.212Z,8.00
2023-10-10T19:54:13.948Z,9.97
2023-10-10T19:56:42.654Z,9.30
2023-10-10T19:59:11.024Z,7.80
2023-10-10T20:01:39.456Z,7.50
2023-10-10T20:04:08.728Z,6.97
2023-10-10T20:06:37.308Z,6.90
2023-10-10T20:09:11.469Z,5.20
2023-10-10T20:11:41.895Z,8.87
2023-10-10T20:14:10.655Z,8.40
2023-10-10T20:16:39.654Z,6.87
2023-10-10T20:19:08.413Z,8.17
2023-10-10T20:21:38.037Z,6.70
2023-10-10T20:24:09.496Z,8.57
2023-10-10T20:26:38.087Z,5.90
2023-10-10T20:29:10.806Z,7.63
2023-10-10T20:31:39.356Z,13.67
2023-10-10T20:34:08.584Z,8.53
2023-10-10T20:36:37.930Z,6.03
2023-10-10T20:39:07.943Z,5.83
2023-10-10T20:41:36.470Z,4.03
2023-10-10T20:44:04.887Z,6.30
2023-10-10T20:46:34.406Z,7.23
2023-10-10T20:49:04.165Z,5.23
2023-10-10T20:51:32.512Z,3.40
2023-10-10T20:54:00.887Z,7.70
2023-10-10T20:56:30.506Z,5.77
2023-10-10T20:58:58.900Z,13.30
2023-10-10T21:01:27.330Z,7.90
2023-10-10T21:03:56.050Z,6.57
2023-10-10T21:06:27.398Z,3.10
2023-10-10T21:08:55.780Z,6.40
2023-10-10T21:11:25.067Z,8.37
2023-10-10T21:13:53.439Z,10.43
2023-10-10T21:16:21.832Z,6.97
2023-10-10T21:18:50.294Z,9.13
2023-10-10T21:21:23.008Z,4.83
2023-10-10T21:23:53.368Z,4.97
2023-10-10T21:26:22.126Z,4.27
2023-10-10T21:28:50.506Z,5.07
2023-10-10T21:31:19.377Z,5.17
2023-10-10T21:33:47.953Z,5.57
2023-10-10T21:36:16.682Z,4.90
2023-10-10T21:38:45.102Z,4.70
2023-10-10T21:41:16.385Z,6.63
2023-10-10T21:43:44.770Z,10.20
2023-10-10T21:46:13.265Z,6.10
2023-10-10T21:48:42.302Z,5.43
2023-10-10T21:51:11.460Z,8.37
2023-10-10T21:53:39.916Z,3.20
2023-10-10T21:56:10.408Z,4.80
2023-10-10T21:58:40.643Z,9.27
2023-10-10T22:01:12.561Z,7.47
2023-10-10T22:03:45.483Z,5.60
2023-10-10T22:06:14.247Z,4.03
2023-10-10T22:08:43.750Z,5.47
2023-10-10T22:11:13.030Z,9.67
2023-10-10T22:13:43.065Z,3.53
2023-10-10T22:16:11.961Z,5.40
2023-10-10T22:18:40.553Z,7.20
2023-10-10T22:21:11.986Z,8.73
2023-10-10T22:23:40.801Z,6.20
2023-10-10T22:26:10.373Z,7.73
2023-10-10T22:28:40.011Z,4.47
2023-10-10T22:31:15.753Z,5.23
2023-10-10T22:33:45.235Z,6.17
2023-10-10T22:36:16.120Z,6.87
2023-10-10T22:38:46.417Z,6.10
2023-10-10T22:41:15.226Z,6.50
2023-10-10T22:43:45.640Z,7.17
2023-10-10T22:46:15.700Z,7.77
2023-10-10T22:48:45.055Z,7.73
2023-10-10T22:51:14.256Z,6.27
2023-10-10T22:53:43.238Z,7.73
2023-10-10T22:56:12.853Z,7.67
2023-10-10T22:58:43.707Z,7.97
2023-10-10T23:01:16.880Z,8.20
2023-10-10T23:03:47.670Z,8.70
2023-10-10T23:06:16.320Z,7.20
2023-10-10T23:08:44.840Z,6.73
2023-10-10T23:11:14.558Z,10.20
2023-10-10T23:13:43.338Z,6.37
2023-10-10T23:16:16.482Z,4.70
2023-10-10T23:18:46.574Z,5.53
2023-10-10T23:21:20.467Z,7.03
2023-10-10T23:23:49.310Z,6.30
2023-10-10T23:26:19.542Z,6.63
2023-10-10T23:28:48.259Z,8.30
2023-10-10T23:31:16.619Z,5.93
2023-10-10T23:33:45.099Z,5.93
2023-10-10T23:36:13.518Z,9.33
2023-10-10T23:38:45.481Z,6.53
2023-10-10T23:41:15.417Z,8.10
2023-10-10T23:43:47.456Z,9.43
2023-10-10T23:46:23.106Z,7.80
2023-10-10T23:48:52.025Z,8.47
2023-10-10T23:51:21.306Z,10.57
2023-10-10T23:53:51.145Z,10.40
2023-10-10T23:56:19.913Z,11.43
2023-10-10T23:58:52.837Z,11.07
